createdAt,value
2022-11-16T00:00:43.570Z,26.38
2022-11-16T00:02:19.777Z,27.02
2022-11-16T00:04:02.899Z,24.08
2022-11-16T00:05:43.701Z,27.83
2022-11-16T00:07:20.276Z,27.38
2022-11-16T00:08:59.512Z,25.45
2022-11-16T00:10:36.749Z,27.35
2022-11-16T00:12:13.376Z,27.27
2022-11-16T00:13:49.068Z,27.02
2022-11-16T00:15:25.105Z,30.27
2022-11-16T00:17:01.318Z,27.42
2022-11-16T00:18:37.582Z,29.27
2022-11-16T00:20:13.511Z,32.13
2022-11-16T00:21:48.631Z,29.77
2022-11-16T00:23:23.866Z,30.42
2022-11-16T00:24:59.245Z,30.05
2022-11-16T00:26:36.118Z,31.00
2022-11-16T00:28:11.375Z,30.80
2022-11-16T00:29:46.713Z,29.48
2022-11-16T00:31:27.631Z,33.65
2022-11-16T00:33:04.613Z,27.70
2022-11-16T00:34:40.984Z,30.02
2022-11-16T00:36:16.709Z,29.42
2022-11-16T00:37:52.285Z,30.05
2022-11-16T00:39:28.170Z,33.88
2022-11-16T00:41:10.049Z,32.00
2022-11-16T00:42:47.445Z,31.05
2022-11-16T00:44:23.665Z,33.97
2022-11-16T00:45:58.485Z,29.60
2022-11-16T00:47:34.459Z,34.17
2022-11-16T00:49:10.017Z,30.85
2022-11-16T00:50:46.634Z,29.35
2022-11-16T00:52:22.761Z,29.55
2022-11-16T00:53:59.037Z,32.40
2022-11-16T00:55:34.560Z,33.22
2022-11-16T00:57:09.591Z,32.78
2022-11-16T00:58:46.786Z,29.50
2022-11-16T01:00:23.360Z,31.13
2022-11-16T01:01:59.383Z,34.35
2022-11-16T01:03:40.036Z,33.13
2022-11-16T01:05:21.777Z,31.95
2022-11-16T01:07:02.490Z,33.20
2022-11-16T01:08:40.598Z,28.45
2022-11-16T01:10:19.175Z,26.98
2022-11-16T01:11:55.000Z,26.50
2022-11-16T01:13:30.202Z,24.58
2022-11-16T01:15:10.148Z,25.15
2022-11-16T01:16:50.348Z,20.45
2022-11-16T01:18:26.365Z,22.70
2022-11-16T01:20:03.260Z,20.45
2022-11-16T01:21:38.328Z,18.80
2022-11-16T01:23:13.442Z,19.98
2022-11-16T01:24:49.134Z,20.13
2022-11-16T01:26:24.486Z,18.08
2022-11-16T01:27:59.553Z,17.48
2022-11-16T01:29:35.112Z,18.58
2022-11-16T01:31:17.698Z,16.95
2022-11-16T01:32:53.203Z,16.13
2022-11-16T01:34:28.933Z,16.60
2022-11-16T01:36:10.949Z,16.63
2022-11-16T01:37:46.713Z,16.20
2022-11-16T01:39:22.784Z,16.10
2022-11-16T01:40:58.689Z,16.27
2022-11-16T01:42:33.857Z,17.10
2022-11-16T01:44:57.063Z,16.73
2022-11-16T01:46:33.476Z,16.05
2022-11-16T01:48:11.259Z,16.70
2022-11-16T01:49:54.509Z,16.52
2022-11-16T01:51:34.641Z,16.58
2022-11-16T01:53:12.686Z,15.43
2022-11-16T01:54:52.086Z,16.02
2022-11-16T01:56:29.667Z,16.58
2022-11-16T01:58:06.766Z,18.13
2022-11-16T01:59:44.923Z,16.80
2022-11-16T02:01:25.555Z,17.23
2022-11-16T02:03:03.598Z,16.92
2022-11-16T02:04:46.062Z,17.13
2022-11-16T02:06:55.702Z,19.38
2022-11-16T02:08:48.699Z,18.98
2022-11-16T02:10:44.245Z,21.08
2022-11-16T02:13:01.964Z,19.70
2022-11-16T02:15:01.361Z,21.92
2022-11-16T02:16:48.555Z,21.67
2022-11-16T02:18:35.373Z,20.98
2022-11-16T02:20:48.907Z,21.48
2022-11-16T02:22:48.099Z,19.42
2022-11-16T02:24:43.206Z,20.38
2022-11-16T02:27:02.578Z,19.98
2022-11-16T02:28:51.470Z,18.67
2022-11-16T02:30:28.066Z,18.83
2022-11-16T02:32:10.526Z,16.58
2022-11-16T02:33:50.104Z,15.55
2022-11-16T02:35:34.024Z,15.35
2022-11-16T02:37:14.371Z,15.38
2022-11-16T02:38:56.315Z,14.30
2022-11-16T02:40:34.869Z,14.90
2022-11-16T02:42:17.120Z,14.35
2022-11-16T02:44:01.522Z,13.07
2022-11-16T02:45:44.025Z,12.75
2022-11-16T02:47:25.010Z,12.10
2022-11-16T02:49:05.169Z,11.80
2022-11-16T02:50:41.635Z,12.48
2022-11-16T02:52:19.568Z,11.45
2022-11-16T02:54:02.729Z,11.15
2022-11-16T02:55:38.835Z,10.70
2022-11-16T02:58:54.246Z,9.55
2022-11-16T03:00:39.256Z,10.18
2022-11-16T03:02:25.138Z,9.48
2022-11-16T03:04:14.341Z,9.32
2022-11-16T03:06:04.194Z,9.98
2022-11-16T03:07:56.691Z,9.25
2022-11-16T03:09:39.704Z,9.15
2022-11-16T03:11:22.865Z,8.20
2022-11-16T03:13:05.661Z,7.80
2022-11-16T03:14:48.807Z,7.72
2022-11-16T03:16:32.088Z,7.82
2022-11-16T03:18:17.846Z,7.55
2022-11-16T03:20:15.525Z,7.10
2022-11-16T03:22:04.332Z,7.10
2022-11-16T03:23:44.774Z,7.00
2022-11-16T03:25:23.565Z,6.82
2022-11-16T03:27:07.384Z,7.03
2022-11-16T03:28:55.176Z,6.20
2022-11-16T03:30:41.408Z,6.17
2022-11-16T03:32:29.788Z,6.30
2022-11-16T03:34:12.666Z,7.32
2022-11-16T03:35:56.658Z,6.85
2022-11-16T03:37:33.243Z,7.47
2022-11-16T03:39:19.421Z,7.20
2022-11-16T03:41:09.654Z,7.03
2022-11-16T03:42:47.778Z,6.88
2022-11-16T03:44:27.570Z,7.40
2022-11-16T03:46:05.129Z,7.70
2022-11-16T03:47:42.633Z,7.15
2022-11-16T03:49:25.616Z,7.68
2022-11-16T03:51:04.902Z,7.05
2022-11-16T03:52:44.592Z,7.20
2022-11-16T03:54:20.143Z,7.18
2022-11-16T03:55:59.122Z,7.70
2022-11-16T03:57:39.784Z,7.47
2022-11-16T03:59:17.502Z,7.45
2022-11-16T04:00:53.738Z,6.97
2022-11-16T04:02:33.970Z,7.00
2022-11-16T04:04:16.436Z,7.18
2022-11-16T04:07:25.873Z,7.35
2022-11-16T04:09:01.767Z,8.18
2022-11-16T04:10:46.164Z,7.18
2022-11-16T04:12:23.240Z,6.95
2022-11-16T04:14:06.545Z,8.57
2022-11-16T04:15:45.993Z,8.30
2022-11-16T04:17:28.588Z,9.32
2022-11-16T04:19:07.999Z,9.55
2022-11-16T04:20:48.011Z,9.07
2022-11-16T04:22:33.566Z,9.85
2022-11-16T04:24:16.950Z,10.13
2022-11-16T04:26:00.737Z,10.00
2022-11-16T04:27:37.081Z,10.30
2022-11-16T04:29:16.912Z,10.63
2022-11-16T04:30:58.450Z,10.57
2022-11-16T04:32:38.018Z,10.50
2022-11-16T04:34:17.450Z,10.85
2022-11-16T04:35:57.009Z,10.43
2022-11-16T04:37:38.567Z,10.57
2022-11-16T04:39:21.310Z,10.30
2022-11-16T04:40:57.146Z,11.93
2022-11-16T04:42:33.129Z,9.38
2022-11-16T04:44:13.445Z,9.25
2022-11-16T04:45:57.166Z,10.15
2022-11-16T04:47:40.584Z,9.48
2022-11-16T04:49:18.409Z,10.60
2022-11-16T04:50:56.941Z,10.73
2022-11-16T04:52:36.996Z,10.55
2022-11-16T04:54:23.516Z,11.43
2022-11-16T04:56:03.164Z,11.40
2022-11-16T04:57:40.925Z,11.77
2022-11-16T04:59:19.749Z,12.55
2022-11-16T05:01:10.650Z,12.35
2022-11-16T05:02:55.607Z,11.88
2022-11-16T05:04:46.795Z,12.35
2022-11-16T05:06:32.286Z,11.18
2022-11-16T05:08:16.880Z,11.05
2022-11-16T05:09:55.856Z,10.93
2022-11-16T05:11:36.892Z,10.60
2022-11-16T05:13:14.714Z,11.30
2022-11-16T05:14:55.728Z,9.93
2022-11-16T05:16:33.975Z,9.82
2022-11-16T05:18:14.507Z,9.85
2022-11-16T05:19:54.539Z,11.18
2022-11-16T05:21:35.413Z,10.35
2022-11-16T05:23:17.488Z,10.50
2022-11-16T05:25:02.582Z,9.98
2022-11-16T05:26:41.243Z,9.70
2022-11-16T05:28:17.290Z,9.23
2022-11-16T05:29:53.823Z,8.07
2022-11-16T05:31:40.118Z,6.25
2022-11-16T05:34:37.122Z,6.82
2022-11-16T05:36:12.703Z,6.07
2022-11-16T05:37:47.771Z,6.85
2022-11-16T05:39:25.137Z,5.30
2022-11-16T05:41:00.630Z,5.05
2022-11-16T05:42:36.417Z,7.03
2022-11-16T05:44:12.227Z,4.88
2022-11-16T05:45:48.257Z,5.57
2022-11-16T05:47:24.963Z,5.40
2022-11-16T05:48:59.956Z,4.65
2022-11-16T05:50:42.355Z,4.90
2022-11-16T05:52:18.918Z,4.97
2022-11-16T05:53:53.748Z,4.43
2022-11-16T05:55:31.419Z,4.88
2022-11-16T05:57:06.970Z,4.38
2022-11-16T05:58:44.266Z,4.38
2022-11-16T06:00:20.436Z,4.03
2022-11-16T06:01:55.367Z,4.22
2022-11-16T06:03:37.317Z,3.67
2022-11-16T06:05:18.252Z,3.85
2022-11-16T06:06:58.778Z,4.03
2022-11-16T06:08:35.066Z,4.03
2022-11-16T06:10:10.385Z,4.13
2022-11-16T06:11:47.728Z,4.65
2022-11-16T06:13:22.960Z,4.50
2022-11-16T06:14:59.344Z,3.97
2022-11-16T06:16:35.932Z,4.90
2022-11-16T06:18:12.023Z,4.68
2022-11-16T06:19:47.029Z,4.38
2022-11-16T06:21:27.750Z,4.80
2022-11-16T06:23:03.010Z,4.85
2022-11-16T06:24:38.908Z,4.70
2022-11-16T06:26:13.809Z,4.85
2022-11-16T06:27:51.823Z,4.43
2022-11-16T06:29:32.865Z,4.07
2022-11-16T06:31:13.847Z,4.50
2022-11-16T06:32:49.159Z,4.30
2022-11-16T06:34:25.822Z,4.05
2022-11-16T06:36:02.007Z,4.32
2022-11-16T06:37:38.241Z,4.75
2022-11-16T06:39:13.358Z,4.65
2022-11-16T06:40:52.211Z,4.32
2022-11-16T06:42:27.529Z,4.45
2022-11-16T06:44:04.114Z,4.25
2022-11-16T06:45:39.737Z,4.25
2022-11-16T06:47:15.200Z,4.15
2022-11-16T06:48:52.875Z,4.28
2022-11-16T06:50:28.594Z,4.15
2022-11-16T06:52:05.467Z,3.95
2022-11-16T06:53:43.254Z,4.30
2022-11-16T06:55:20.163Z,3.20
2022-11-16T06:56:56.500Z,3.85
2022-11-16T06:58:33.875Z,3.80
2022-11-16T07:00:13.476Z,3.10
2022-11-16T07:01:50.958Z,5.18
2022-11-16T07:03:31.898Z,3.80
2022-11-16T07:05:12.595Z,4.20
2022-11-16T07:06:54.782Z,4.50
2022-11-16T07:08:31.955Z,3.22
2022-11-16T07:10:09.126Z,3.85
2022-11-16T07:11:45.165Z,4.30
2022-11-16T07:13:21.134Z,4.18
2022-11-16T07:14:57.655Z,4.15
2022-11-16T07:16:36.302Z,4.07
2022-11-16T07:18:13.191Z,3.95
2022-11-16T07:19:50.033Z,3.40
2022-11-16T07:21:31.596Z,3.60
2022-11-16T07:23:13.866Z,4.43
2022-11-16T07:24:50.029Z,4.03
2022-11-16T07:26:25.956Z,4.35
2022-11-16T07:28:01.939Z,3.42
2022-11-16T07:29:38.556Z,4.15
2022-11-16T07:31:19.149Z,3.53
2022-11-16T07:32:59.880Z,3.90
2022-11-16T07:34:36.330Z,3.67
2022-11-16T07:36:14.451Z,4.18
2022-11-16T07:37:49.850Z,3.83
2022-11-16T07:39:25.863Z,4.18
2022-11-16T07:41:02.850Z,4.22
2022-11-16T07:42:41.252Z,4.07
2022-11-16T07:44:21.007Z,3.50
2022-11-16T07:46:30.256Z,3.70
2022-11-16T07:48:03.029Z,4.18
2022-11-16T07:49:39.487Z,3.72
2022-11-16T07:51:20.589Z,4.10
2022-11-16T07:52:56.065Z,3.97
2022-11-16T07:54:31.921Z,4.40
2022-11-16T07:56:09.652Z,4.50
2022-11-16T07:57:47.950Z,4.40
2022-11-16T07:59:27.988Z,5.18
2022-11-16T08:01:10.149Z,4.90
2022-11-16T08:02:45.978Z,4.72
2022-11-16T08:04:28.127Z,4.53
2022-11-16T08:06:14.183Z,5.13
2022-11-16T08:07:50.659Z,4.88
2022-11-16T08:09:29.878Z,4.18
2022-11-16T08:12:31.827Z,5.20
2022-11-16T08:14:11.054Z,4.78
2022-11-16T08:15:47.211Z,4.72
2022-11-16T08:17:23.786Z,5.47
2022-11-16T08:19:00.107Z,5.47
2022-11-16T08:20:37.295Z,5.93
2022-11-16T08:22:12.954Z,5.85
2022-11-16T08:23:48.757Z,6.22
2022-11-16T08:25:26.469Z,6.45
2022-11-16T08:27:01.753Z,5.18
2022-11-16T08:28:38.068Z,4.75
2022-11-16T08:30:16.617Z,4.55
2022-11-16T08:31:53.559Z,5.03
2022-11-16T08:33:29.986Z,5.00
2022-11-16T08:35:06.287Z,5.47
2022-11-16T08:36:48.054Z,4.70
2022-11-16T08:38:28.213Z,6.38
2022-11-16T08:40:06.808Z,5.80
2022-11-16T08:41:42.396Z,4.95
2022-11-16T08:43:19.083Z,5.47
2022-11-16T08:44:55.695Z,5.35
2022-11-16T08:46:32.649Z,5.65
2022-11-16T08:48:11.235Z,5.68
2022-11-16T08:49:50.071Z,5.75
2022-11-16T08:53:28.077Z,4.93
2022-11-16T08:55:04.923Z,6.07
2022-11-16T08:56:41.322Z,6.93
2022-11-16T08:58:16.799Z,5.60
2022-11-16T08:59:54.240Z,4.82
2022-11-16T09:01:34.634Z,4.97
2022-11-16T09:03:15.230Z,5.10
2022-11-16T09:04:56.114Z,5.20
2022-11-16T09:06:37.054Z,5.43
2022-11-16T09:08:13.442Z,5.68
2022-11-16T09:09:53.909Z,6.25
2022-11-16T09:11:34.423Z,5.93
2022-11-16T09:15:09.338Z,5.32
2022-11-16T09:16:46.495Z,5.68
2022-11-16T09:18:25.709Z,6.15
2022-11-16T09:20:02.215Z,5.60
2022-11-16T09:21:38.256Z,5.72
2022-11-16T09:23:15.415Z,6.47
2022-11-16T09:24:53.455Z,5.65
2022-11-16T09:26:28.676Z,6.28
2022-11-16T09:28:08.163Z,6.10
2022-11-16T09:29:45.736Z,7.13
2022-11-16T09:31:26.601Z,6.60
2022-11-16T09:33:02.707Z,7.65
2022-11-16T09:34:42.754Z,7.30
2022-11-16T09:36:24.807Z,7.57
2022-11-16T09:38:02.370Z,7.50
2022-11-16T09:39:38.318Z,7.63
2022-11-16T09:41:55.056Z,7.30
2022-11-16T09:43:45.867Z,7.03
2022-11-16T09:45:30.581Z,6.95
2022-11-16T09:47:09.498Z,7.65
2022-11-16T09:48:46.826Z,7.70
2022-11-16T09:54:37.798Z,8.45
2022-11-16T09:56:22.439Z,8.50
2022-11-16T09:58:02.976Z,8.48
2022-11-16T09:59:46.427Z,8.73
2022-11-16T10:01:32.504Z,9.20
2022-11-16T10:03:14.462Z,7.50
2022-11-16T10:05:02.619Z,7.47
2022-11-16T10:06:51.171Z,7.53
2022-11-16T10:08:42.397Z,6.80
2022-11-16T10:10:25.961Z,6.85
2022-11-16T10:12:16.766Z,6.65
2022-11-16T10:14:06.773Z,6.22
2022-11-16T10:15:57.863Z,7.75
2022-11-16T10:17:54.806Z,6.22
2022-11-16T10:19:43.527Z,6.78
2022-11-16T10:21:43.688Z,6.40
2022-11-16T10:23:38.242Z,7.15
2022-11-16T10:25:19.500Z,6.13
2022-11-16T10:27:19.267Z,5.75
2022-11-16T10:29:37.255Z,5.03
2022-11-16T10:31:28.253Z,5.72
2022-11-16T10:33:11.460Z,5.50
2022-11-16T10:34:52.910Z,5.35
2022-11-16T10:36:33.798Z,5.15
2022-11-16T10:38:14.181Z,4.38
2022-11-16T10:39:52.032Z,4.75
2022-11-16T10:41:40.333Z,4.75
2022-11-16T10:43:25.447Z,5.30
2022-11-16T10:45:13.487Z,5.57
2022-11-16T10:47:00.829Z,5.45
2022-11-16T10:48:42.940Z,4.85
2022-11-16T10:50:31.461Z,5.18
2022-11-16T10:52:08.098Z,5.30
2022-11-16T10:53:44.347Z,5.25
2022-11-16T10:55:22.902Z,4.50
2022-11-16T10:57:05.316Z,5.13
2022-11-16T10:58:55.113Z,5.97
2022-11-16T11:00:47.999Z,5.57
2022-11-16T11:02:33.953Z,5.43
2022-11-16T11:04:21.511Z,5.47
2022-11-16T11:06:02.041Z,5.85
2022-11-16T11:07:49.321Z,5.78
2022-11-16T11:09:30.347Z,5.30
2022-11-16T11:11:21.812Z,5.70
2022-11-16T11:13:25.614Z,6.63
2022-11-16T11:15:25.517Z,6.35
2022-11-16T11:17:11.921Z,5.82
2022-11-16T11:18:47.240Z,6.32
2022-11-16T11:20:25.662Z,6.35
2022-11-16T11:22:01.823Z,6.75
2022-11-16T11:23:44.517Z,7.13
2022-11-16T11:25:24.477Z,6.20
2022-11-16T11:27:01.137Z,6.00
2022-11-16T11:28:38.650Z,6.38
2022-11-16T11:30:20.188Z,7.05
2022-11-16T11:32:00.792Z,6.60
2022-11-16T11:33:49.330Z,7.20
2022-11-16T11:35:27.382Z,6.30
2022-11-16T11:37:11.196Z,5.68
2022-11-16T11:40:58.789Z,5.30
2022-11-16T11:42:34.472Z,5.88
2022-11-16T11:44:17.618Z,5.93
2022-11-16T11:46:03.864Z,5.32
2022-11-16T11:47:57.941Z,6.00
2022-11-16T11:49:41.809Z,5.65
2022-11-16T11:51:27.526Z,5.07
2022-11-16T11:53:16.074Z,5.38
2022-11-16T11:54:55.579Z,5.65
2022-11-16T11:56:33.179Z,6.03
2022-11-16T11:58:18.149Z,5.05
2022-11-16T11:59:54.537Z,5.15
2022-11-16T12:02:05.947Z,3.97
2022-11-16T12:04:32.450Z,4.68
2022-11-16T12:06:22.538Z,4.88
2022-11-16T12:08:32.927Z,4.20
2022-11-16T12:10:21.606Z,3.90
2022-11-16T12:12:15.155Z,4.43
2022-11-16T12:14:17.483Z,4.72
2022-11-16T12:16:07.631Z,4.65
2022-11-16T12:17:50.714Z,4.00
2022-11-16T12:19:50.309Z,4.43
2022-11-16T12:21:49.186Z,3.95
2022-11-16T12:24:06.488Z,4.22
2022-11-16T12:25:54.101Z,3.58
2022-11-16T12:27:42.739Z,4.47
2022-11-16T12:29:25.993Z,4.50
2022-11-16T12:31:25.251Z,4.03
2022-11-16T12:33:20.589Z,3.65
2022-11-16T12:35:28.320Z,3.70
2022-11-16T12:37:16.038Z,3.22
2022-11-16T12:39:07.668Z,3.33
2022-11-16T12:41:05.181Z,3.83
2022-11-16T12:42:52.330Z,3.40
2022-11-16T12:44:50.660Z,4.00
2022-11-16T12:46:38.343Z,3.15
2022-11-16T12:48:57.074Z,3.70
2022-11-16T12:50:48.969Z,3.63
2022-11-16T12:52:57.349Z,3.35
2022-11-16T12:55:25.304Z,3.67
2022-11-16T12:57:11.613Z,3.88
2022-11-16T12:59:25.137Z,3.50
2022-11-16T13:01:10.768Z,3.40
2022-11-16T13:03:10.524Z,3.78
2022-11-16T13:04:56.532Z,3.65
2022-11-16T13:06:43.614Z,4.13
2022-11-16T13:08:33.822Z,3.80
2022-11-16T13:10:18.519Z,3.03
2022-11-16T13:11:57.972Z,3.40
2022-11-16T13:13:36.749Z,3.40
2022-11-16T13:15:17.753Z,3.15
2022-11-16T13:16:54.319Z,2.33
2022-11-16T13:18:32.738Z,3.33
2022-11-16T13:20:31.501Z,3.35
2022-11-16T13:22:17.386Z,2.97
2022-11-16T13:24:27.004Z,2.92
2022-11-16T13:26:09.440Z,4.03
2022-11-16T13:27:50.950Z,3.20
2022-11-16T13:29:37.513Z,3.30
2022-11-16T13:31:25.378Z,3.58
2022-11-16T13:33:20.558Z,3.42
2022-11-16T13:34:57.616Z,3.67
2022-11-16T13:36:45.574Z,3.33
2022-11-16T13:38:54.919Z,4.00
2022-11-16T13:40:32.350Z,3.25
2022-11-16T13:42:13.072Z,3.30
2022-11-16T13:43:49.448Z,3.50
2022-11-16T13:45:31.967Z,3.63
2022-11-16T13:47:21.598Z,3.75
2022-11-16T13:48:57.148Z,2.78
2022-11-16T13:50:38.392Z,2.78
2022-11-16T13:52:23.740Z,3.53
2022-11-16T13:54:43.948Z,2.95
2022-11-16T13:56:01.755Z,2.95
2022-11-16T13:57:37.652Z,3.08
2022-11-16T13:59:16.247Z,3.40
2022-11-16T14:01:02.456Z,2.85
2022-11-16T14:02:41.374Z,3.50
2022-11-16T14:04:57.516Z,3.80
2022-11-16T14:06:59.537Z,2.67
2022-11-16T14:08:50.565Z,2.95
2022-11-16T14:11:02.441Z,3.08
2022-11-16T14:12:56.173Z,3.42
2022-11-16T14:15:11.824Z,3.22
2022-11-16T14:16:50.621Z,3.10
2022-11-16T14:18:34.278Z,2.75
2022-11-16T14:20:13.849Z,3.17
2022-11-16T14:21:59.908Z,3.40
2022-11-16T14:24:09.347Z,3.25
2022-11-16T14:25:55.261Z,3.35
2022-11-16T14:27:41.747Z,3.47
2022-11-16T14:29:41.222Z,3.25
2022-11-16T14:31:25.960Z,4.20
2022-11-16T14:33:00.458Z,3.25
2022-11-16T14:34:42.192Z,3.60
2022-11-16T14:36:38.813Z,3.95
2022-11-16T14:38:26.382Z,3.40
2022-11-16T14:40:08.590Z,4.10
2022-11-16T14:41:46.227Z,3.22
2022-11-16T14:43:26.674Z,3.00
2022-11-16T14:45:04.824Z,3.17
2022-11-16T14:46:41.499Z,3.60
2022-11-16T14:48:20.303Z,3.15
2022-11-16T14:49:57.227Z,3.10
2022-11-16T14:51:38.857Z,3.00
2022-11-16T14:53:19.266Z,4.95
2022-11-16T14:54:58.465Z,3.15
2022-11-16T14:56:33.618Z,3.30
2022-11-16T14:58:16.159Z,3.63
2022-11-16T15:00:12.455Z,3.75
2022-11-16T15:01:48.543Z,3.20
2022-11-16T15:03:35.261Z,2.92
2022-11-16T15:05:19.192Z,3.92
2022-11-16T15:07:03.973Z,3.40
2022-11-16T15:08:47.837Z,3.10
2022-11-16T15:10:27.348Z,2.95
2022-11-16T15:12:05.110Z,3.75
2022-11-16T15:13:46.894Z,3.47
2022-11-16T15:15:26.368Z,3.58
2022-11-16T15:17:01.494Z,3.47
2022-11-16T15:18:36.507Z,3.92
2022-11-16T15:20:17.802Z,3.10
2022-11-16T15:21:56.549Z,3.40
2022-11-16T15:23:32.616Z,3.08
2022-11-16T15:25:29.817Z,3.22
2022-11-16T15:27:24.743Z,3.22
2022-11-16T15:29:00.698Z,3.25
2022-11-16T15:30:38.680Z,3.42
2022-11-16T15:32:17.084Z,3.38
2022-11-16T15:33:52.619Z,3.45
2022-11-16T15:35:31.505Z,3.72
2022-11-16T15:37:11.257Z,3.28
2022-11-16T15:38:47.594Z,3.13
2022-11-16T15:40:24.594Z,3.30
2022-11-16T15:42:04.022Z,3.42
2022-11-16T15:44:12.398Z,3.58
2022-11-16T15:45:51.408Z,3.38
2022-11-16T15:47:28.554Z,3.42
2022-11-16T15:49:09.161Z,2.90
2022-11-16T15:51:04.086Z,3.65
2022-11-16T15:52:43.365Z,3.42
2022-11-16T15:54:25.698Z,4.53
2022-11-16T15:56:04.164Z,3.65
2022-11-16T15:57:45.457Z,3.78
2022-11-16T15:59:28.110Z,3.85
2022-11-16T16:01:07.561Z,4.13
2022-11-16T16:02:44.901Z,3.13
2022-11-16T16:04:26.749Z,3.33
2022-11-16T16:07:38.683Z,4.55
2022-11-16T16:09:26.156Z,3.17
2022-11-16T16:11:11.092Z,3.58
2022-11-16T16:12:49.309Z,3.60
2022-11-16T16:14:28.131Z,3.35
2022-11-16T16:16:26.586Z,4.13
2022-11-16T16:18:04.332Z,4.75
2022-11-16T16:19:43.061Z,3.30
2022-11-16T16:21:24.385Z,3.30
2022-11-16T16:23:08.137Z,4.10
2022-11-16T16:24:45.770Z,4.13
2022-11-16T16:26:23.490Z,3.55
2022-11-16T16:27:59.693Z,3.92
2022-11-16T16:29:35.785Z,4.05
2022-11-16T16:31:18.212Z,4.25
2022-11-16T16:32:56.369Z,3.65
2022-11-16T16:34:39.306Z,4.68
2022-11-16T16:36:18.553Z,4.70
2022-11-16T16:37:58.444Z,3.72
2022-11-16T16:39:33.970Z,4.07
2022-11-16T16:41:24.038Z,3.90
2022-11-16T16:42:59.920Z,3.25
2022-11-16T16:44:35.816Z,3.78
2022-11-16T16:46:11.952Z,3.53
2022-11-16T16:47:47.516Z,3.55
2022-11-16T16:49:24.289Z,3.85
2022-11-16T16:50:59.470Z,3.90
2022-11-16T16:52:38.246Z,3.83
2022-11-16T16:54:17.557Z,3.80
2022-11-16T16:55:52.990Z,5.20
2022-11-16T16:57:28.049Z,4.95
2022-11-16T16:59:04.067Z,4.18
2022-11-16T17:00:38.659Z,5.00
2022-11-16T17:02:15.327Z,5.72
2022-11-16T17:03:56.739Z,7.03
2022-11-16T17:05:38.916Z,4.72
2022-11-16T17:07:19.592Z,5.40
2022-11-16T17:08:56.309Z,5.07
2022-11-16T17:10:31.942Z,7.25
2022-11-16T17:12:08.891Z,5.75
2022-11-16T17:13:44.868Z,7.45
2022-11-16T17:15:20.917Z,8.25
2022-11-16T17:16:57.019Z,9.55
2022-11-16T17:18:32.935Z,7.93
2022-11-16T17:20:10.896Z,7.53
2022-11-16T17:21:48.125Z,7.18
2022-11-16T17:23:24.506Z,8.27
2022-11-16T17:25:00.362Z,8.38
2022-11-16T17:26:36.530Z,5.82
2022-11-16T17:28:11.998Z,7.35
2022-11-16T17:29:47.443Z,6.35
2022-11-16T17:31:28.004Z,6.07
2022-11-16T17:33:03.552Z,5.65
2022-11-16T17:34:39.741Z,6.90
2022-11-16T17:36:19.352Z,6.68
2022-11-16T17:37:56.921Z,8.05
2022-11-16T17:39:35.677Z,5.93
2022-11-16T17:41:18.529Z,5.55
2022-11-16T17:42:56.870Z,6.60
2022-11-16T17:44:33.062Z,5.93
2022-11-16T17:46:11.347Z,6.18
2022-11-16T17:47:47.066Z,5.82
2022-11-16T17:49:23.016Z,5.43
2022-11-16T17:50:59.439Z,5.70
2022-11-16T17:52:38.348Z,7.05
2022-11-16T17:54:16.001Z,6.22
2022-11-16T17:55:52.424Z,5.93
2022-11-16T17:57:28.448Z,5.40
2022-11-16T17:59:03.774Z,6.43
2022-11-16T18:00:40.714Z,6.32
2022-11-16T18:02:16.221Z,5.43
2022-11-16T18:03:56.888Z,7.15
2022-11-16T18:05:37.452Z,5.50
2022-11-16T18:07:15.333Z,5.20
2022-11-16T18:08:52.727Z,5.55
2022-11-16T18:10:29.171Z,7.05
2022-11-16T18:12:06.071Z,5.15
2022-11-16T18:13:41.899Z,5.05
2022-11-16T18:15:36.568Z,5.38
2022-11-16T18:17:14.244Z,5.78
2022-11-16T18:18:55.542Z,6.38
2022-11-16T18:20:35.374Z,5.07
2022-11-16T18:22:11.700Z,5.40
2022-11-16T18:23:47.100Z,5.55
2022-11-16T18:25:23.219Z,5.60
2022-11-16T18:27:00.243Z,5.97
2022-11-16T18:28:36.554Z,5.05
2022-11-16T18:30:14.214Z,5.90
2022-11-16T18:31:49.972Z,6.25
2022-11-16T18:33:30.876Z,5.63
2022-11-16T18:35:07.744Z,5.22
2022-11-16T18:36:43.107Z,5.43
2022-11-16T18:38:18.984Z,4.90
2022-11-16T18:39:54.514Z,4.75
2022-11-16T18:41:35.418Z,7.22
2022-11-16T18:43:13.603Z,4.70
2022-11-16T18:44:52.462Z,5.93
2022-11-16T18:46:30.713Z,5.38
2022-11-16T18:48:07.854Z,4.45
2022-11-16T18:49:43.638Z,4.18
2022-11-16T18:51:26.266Z,4.78
2022-11-16T18:53:01.842Z,5.40
2022-11-16T18:54:37.430Z,5.30
2022-11-16T18:56:14.199Z,5.72
2022-11-16T18:57:49.621Z,5.55
2022-11-16T18:59:28.149Z,5.82
2022-11-16T19:01:06.748Z,5.13
2022-11-16T19:02:42.260Z,5.50
2022-11-16T19:04:22.891Z,7.65
2022-11-16T19:06:07.142Z,10.15
2022-11-16T19:07:43.519Z,10.27
2022-11-16T19:09:19.150Z,7.13
2022-11-16T19:10:55.306Z,8.80
2022-11-16T19:12:31.418Z,11.48
2022-11-16T19:14:08.909Z,6.50
2022-11-16T19:15:46.445Z,10.48
2022-11-16T19:17:24.092Z,11.10
2022-11-16T19:19:00.390Z,8.57
2022-11-16T19:20:36.148Z,10.63
2022-11-16T19:22:11.975Z,10.13
2022-11-16T19:23:51.056Z,8.50
2022-11-16T19:25:27.407Z,10.57
2022-11-16T19:27:04.326Z,12.23
2022-11-16T19:28:45.519Z,6.95
2022-11-16T19:30:21.158Z,5.50
2022-11-16T19:31:58.507Z,6.03
2022-11-16T19:33:35.394Z,5.82
2022-11-16T19:35:12.461Z,6.18
2022-11-16T19:36:47.945Z,6.47
2022-11-16T19:38:24.145Z,7.10
2022-11-16T19:39:59.335Z,7.82
2022-11-16T19:41:35.298Z,5.93
2022-11-16T19:43:12.174Z,6.55
2022-11-16T19:44:48.346Z,7.15
2022-11-16T19:46:24.364Z,6.65
2022-11-16T19:48:00.956Z,6.88
2022-11-16T19:49:36.452Z,5.85
2022-11-16T19:51:19.933Z,5.93
2022-11-16T19:52:56.579Z,6.65
2022-11-16T19:54:33.000Z,7.97
2022-11-16T19:56:12.277Z,9.10
2022-11-16T19:57:48.381Z,8.23
2022-11-16T19:59:25.084Z,8.68
2022-11-16T20:01:01.913Z,8.50
2022-11-16T20:02:38.913Z,8.68
2022-11-16T20:04:21.195Z,9.73
2022-11-16T20:07:27.158Z,8.38
2022-11-16T20:09:07.242Z,9.55
2022-11-16T20:10:42.961Z,7.13
2022-11-16T20:12:18.959Z,7.07
2022-11-16T20:13:56.878Z,6.40
2022-11-16T20:15:32.506Z,5.63
2022-11-16T20:17:10.250Z,6.75
2022-11-16T20:18:46.886Z,6.60
2022-11-16T20:20:23.034Z,6.82
2022-11-16T20:21:58.435Z,5.50
2022-11-16T20:23:36.012Z,6.45
2022-11-16T20:25:12.362Z,5.88
2022-11-16T20:26:49.226Z,5.93
2022-11-16T20:28:24.361Z,6.85
2022-11-16T20:29:59.045Z,6.95
2022-11-16T20:31:35.053Z,5.90
2022-11-16T20:33:11.019Z,5.72
2022-11-16T20:34:47.425Z,6.25
2022-11-16T20:36:26.947Z,5.30
2022-11-16T20:38:01.887Z,5.80
2022-11-16T20:39:37.446Z,5.68
2022-11-16T20:41:21.109Z,6.25
2022-11-16T20:42:56.343Z,5.40
2022-11-16T20:44:33.267Z,5.72
2022-11-16T20:46:10.212Z,5.13
2022-11-16T20:47:45.917Z,6.18
2022-11-16T20:49:21.415Z,5.22
2022-11-16T20:50:57.073Z,4.72
2022-11-16T20:52:38.268Z,4.70
2022-11-16T20:54:19.195Z,5.78
2022-11-16T20:55:55.687Z,5.10
2022-11-16T20:57:31.423Z,4.72
2022-11-16T20:59:08.066Z,4.70
2022-11-16T21:00:44.761Z,4.82
2022-11-16T21:02:20.324Z,4.85
2022-11-16T21:04:03.435Z,4.80
2022-11-16T21:05:45.946Z,5.82
2022-11-16T21:07:21.867Z,4.60
2022-11-16T21:08:59.949Z,4.28
2022-11-16T21:10:36.692Z,4.03
2022-11-16T21:12:11.947Z,4.55
2022-11-16T21:13:48.190Z,4.47
2022-11-16T21:15:27.667Z,3.97
2022-11-16T21:17:04.219Z,4.82
2022-11-16T21:18:41.382Z,3.78
2022-11-16T21:20:27.582Z,3.90
2022-11-16T21:22:04.001Z,3.67
2022-11-16T21:23:44.765Z,4.03
2022-11-16T21:25:23.701Z,4.50
2022-11-16T21:26:58.791Z,4.00
2022-11-16T21:28:35.086Z,3.80
2022-11-16T21:30:13.128Z,4.78
2022-11-16T21:31:49.330Z,4.00
2022-11-16T21:33:26.257Z,3.58
2022-11-16T21:35:01.551Z,4.00
2022-11-16T21:36:38.282Z,4.30
2022-11-16T21:38:14.756Z,4.28
2022-11-16T21:39:51.087Z,3.80
2022-11-16T21:41:33.349Z,4.35
2022-11-16T21:43:08.819Z,4.53
2022-11-16T21:44:45.818Z,5.07
2022-11-16T21:46:25.782Z,4.47
2022-11-16T21:48:04.025Z,4.78
2022-11-16T21:49:54.210Z,4.55
2022-11-16T21:51:35.424Z,4.80
2022-11-16T21:53:11.795Z,4.82
2022-11-16T21:54:48.434Z,5.18
2022-11-16T21:56:25.982Z,5.05
2022-11-16T21:58:03.062Z,4.55
2022-11-16T21:59:39.338Z,5.07
2022-11-16T22:01:20.522Z,5.20
2022-11-16T22:02:57.465Z,4.97
2022-11-16T22:04:38.266Z,5.57
2022-11-16T22:06:18.844Z,5.43
2022-11-16T22:07:55.563Z,4.60
2022-11-16T22:09:30.700Z,4.90
2022-11-16T22:11:11.993Z,5.25
2022-11-16T22:12:47.340Z,5.53
2022-11-16T22:14:24.328Z,5.00
2022-11-16T22:16:04.994Z,6.07
2022-11-16T22:17:46.345Z,5.30
2022-11-16T22:19:21.204Z,4.75
2022-11-16T22:20:56.398Z,5.88
2022-11-16T22:22:34.899Z,5.50
2022-11-16T22:24:10.695Z,5.75
2022-11-16T22:25:46.647Z,5.38
2022-11-16T22:27:22.890Z,5.40
2022-11-16T22:28:58.918Z,4.60
2022-11-16T22:30:36.218Z,5.45
2022-11-16T22:32:12.551Z,5.75
2022-11-16T22:33:52.105Z,5.07
2022-11-16T22:35:28.523Z,5.32
2022-11-16T22:37:06.134Z,5.38